Time;durP1;ratioP1;P1;durP2;ratioP2;P2;SDS_P1;SDS_P2;PMS_P1;PMS_P2;Temp;Humidity;BMP_temperature;BMP_pressure;BME280_temperature;BME280_humidity;BME280_pressure;Samples;Min_cycle;Max_cycle;Signal;HPM_P1;HPM_P2
2021/12/31 00:00:32;;;;;;;6.87;3.77;;;13.30;99.90;;;;;;4981771;28;20879;-73
2021/12/31 00:02:59;;;;;;;5.57;3.37;;;13.30;99.90;;;;;;4987381;28;20200;-69
2021/12/31 00:05:26;;;;;;;7.37;3.43;;;13.20;99.90;;;;;;4979060;28;20246;-74
2021/12/31 00:07:53;;;;;;;4.57;3.17;;;13.20;99.90;;;;;;4980868;28;20208;-71
2021/12/31 00:10:20;;;;;;;4.57;3.20;;;13.20;99.90;;;;;;4986097;28;20692;-72
2021/12/31 00:12:46;;;;;;;5.07;3.10;;;13.00;99.90;;;;;;4987005;28;20215;-75
2021/12/31 00:15:14;;;;;;;5.87;3.40;;;12.90;99.90;;;;;;4985384;28;20242;-75
2021/12/31 00:17:40;;;;;;;5.57;3.40;;;12.90;99.90;;;;;;4986915;28;20227;-73
2021/12/31 00:20:15;;;;;;;5.30;3.57;;;12.90;99.90;;;;;;4989326;28;20279;-75
2021/12/31 00:23:02;;;;;;;5.30;3.67;;;12.90;99.90;;;;;;4984550;28;20204;-72
2021/12/31 00:25:35;;;;;;;5.03;3.73;;;12.80;99.90;;;;;;4988091;28;20221;-75
2021/12/31 00:28:03;;;;;;;5.67;3.57;;;13.00;99.90;;;;;;4989458;28;20664;-73
2021/12/31 00:30:31;;;;;;;5.23;3.70;;;13.10;99.90;;;;;;4987160;28;20268;-72
2021/12/31 00:32:59;;;;;;;4.70;3.60;;;13.30;99.90;;;;;;4983334;28;20209;-74
2021/12/31 00:35:26;;;;;;;4.77;3.60;;;13.20;99.90;;;;;;4986832;28;20287;-74
2021/12/31 00:37:53;;;;;;;6.20;3.40;;;13.10;99.90;;;;;;4984333;28;20209;-77
2021/12/31 00:40:19;;;;;;;6.83;3.40;;;13.10;99.90;;;;;;4986516;28;20763;-73
2021/12/31 00:42:47;;;;;;;4.20;3.43;;;13.10;99.90;;;;;;4981306;28;20217;-74
2021/12/31 00:45:16;;;;;;;5.27;3.20;;;13.10;99.90;;;;;;4978650;28;20209;-71
2021/12/31 00:47:44;;;;;;;5.53;3.50;;;13.10;99.90;;;;;;4988008;28;20212;-72
2021/12/31 00:50:12;;;;;;;6.83;3.20;;;13.20;99.90;;;;;;4985573;28;20204;-73
2021/12/31 00:52:38;;;;;;;7.50;3.40;;;13.20;99.90;;;;;;4981383;28;20252;-72
2021/12/31 00:55:06;;;;;;;5.23;3.07;;;13.10;99.90;;;;;;4983031;28;20425;-76
2021/12/31 00:57:33;;;;;;;5.17;3.50;;;13.00;99.90;;;;;;4981250;28;20201;-73
2021/12/31 01:00:00;;;;;;;4.73;2.93;;;13.00;99.90;;;;;;4982145;28;20233;-74
2021/12/31 01:02:28;;;;;;;7.00;3.07;;;12.90;99.90;;;;;;4982906;28;20221;-73
2021/12/31 01:04:56;;;;;;;4.10;2.90;;;12.90;99.90;;;;;;4982405;28;20221;-77
2021/12/31 01:07:23;;;;;;;5.77;2.90;;;13.00;99.90;;;;;;4982548;28;20251;-74
2021/12/31 01:09:50;;;;;;;4.00;2.60;;;13.00;99.90;;;;;;4986968;28;20196;-76
2021/12/31 01:12:17;;;;;;;4.53;2.60;;;13.00;99.90;;;;;;4986534;28;20201;-72
2021/12/31 01:14:55;;;;;;;7.07;2.77;;;13.20;99.90;;;;;;4984378;28;20291;-72
2021/12/31 01:20:09;;;;;;;6.90;2.70;;;13.30;99.90;;;;;;4987802;28;20221;-72
2021/12/31 01:22:36;;;;;;;4.60;2.40;;;13.20;99.90;;;;;;4987194;28;20251;-71
2021/12/31 01:25:04;;;;;;;4.70;2.67;;;13.20;99.90;;;;;;4986728;28;20213;-70
2021/12/31 01:27:32;;;;;;;2.60;2.13;;;13.10;99.90;;;;;;4988801;28;20197;-71
2021/12/31 01:29:59;;;;;;;4.50;2.40;;;13.10;99.90;;;;;;4987612;28;20188;-72
2021/12/31 01:32:26;;;;;;;3.03;2.13;;;13.10;99.90;;;;;;4984940;28;20197;-72
2021/12/31 01:34:53;;;;;;;7.27;3.50;;;13.10;99.90;;;;;;4981335;28;20648;-71
2021/12/31 01:37:19;;;;;;;5.40;3.00;;;13.10;99.90;;;;;;4984036;28;20196;-71
2021/12/31 01:39:46;;;;;;;5.10;3.00;;;13.10;99.90;;;;;;4986584;28;20207;-70
2021/12/31 01:42:14;;;;;;;3.77;2.33;;;13.10;99.90;;;;;;4981901;28;20217;-72
2021/12/31 01:44:45;;;;;;;5.43;2.80;;;13.10;99.90;;;;;;4980344;28;20304;-73
2021/12/31 01:47:15;;;;;;;5.40;2.80;;;13.20;99.90;;;;;;4984369;28;20211;-69
2021/12/31 01:49:54;;;;;;;4.13;2.57;;;13.20;99.90;;;;;;4984135;28;20205;-71
2021/12/31 01:52:22;;;;;;;5.83;2.57;;;13.20;99.90;;;;;;4981909;28;20201;-74
2021/12/31 01:54:49;;;;;;;6.07;2.90;;;13.20;99.90;;;;;;4985050;28;20240;-72
2021/12/31 01:57:17;;;;;;;5.93;3.13;;;13.00;99.90;;;;;;4987163;28;20769;-71
2021/12/31 01:59:44;;;;;;;4.27;2.57;;;13.00;99.90;;;;;;4987993;28;20556;-70
2021/12/31 02:02:12;;;;;;;4.93;2.53;;;13.10;99.90;;;;;;4984786;28;20220;-71
2021/12/31 02:04:40;;;;;;;5.33;2.80;;;13.20;99.90;;;;;;4991468;28;20343;-71
2021/12/31 02:07:08;;;;;;;5.07;2.90;;;13.30;99.90;;;;;;4977523;28;20193;-71
2021/12/31 02:09:39;;;;;;;5.93;3.27;;;13.50;99.90;;;;;;4990783;28;20193;-71
2021/12/31 02:12:06;;;;;;;4.03;2.50;;;13.50;99.90;;;;;;4992567;28;20244;-75
2021/12/31 02:14:35;;;;;;;3.57;2.70;;;13.40;99.90;;;;;;4985657;28;20232;-70
2021/12/31 02:17:07;;;;;;;4.37;2.43;;;13.30;99.90;;;;;;4981758;28;20205;-70
2021/12/31 02:19:34;;;;;;;5.23;3.10;;;13.20;99.90;;;;;;4990576;28;20279;-75
2021/12/31 02:22:01;;;;;;;6.07;2.97;;;13.20;99.90;;;;;;4984249;28;20213;-74
2021/12/31 02:24:28;;;;;;;4.43;3.10;;;13.20;99.90;;;;;;4980454;28;20223;-71
2021/12/31 02:26:55;;;;;;;3.60;2.70;;;13.10;99.90;;;;;;4983179;28;20692;-69
2021/12/31 02:29:25;;;;;;;5.30;3.10;;;13.10;99.90;;;;;;4987487;28;20783;-69
2021/12/31 02:31:53;;;;;;;4.27;2.70;;;13.10;99.90;;;;;;4986742;28;20201;-73
2021/12/31 02:34:19;;;;;;;4.87;2.93;;;13.10;99.90;;;;;;4990527;28;20224;-73
2021/12/31 02:36:48;;;;;;;4.40;3.07;;;13.10;99.90;;;;;;4989009;28;20201;-69
2021/12/31 02:39:14;;;;;;;4.40;2.83;;;13.20;99.90;;;;;;4987079;28;20296;-71
2021/12/31 02:41:41;;;;;;;5.13;3.07;;;13.10;99.90;;;;;;4989572;28;20220;-70
2021/12/31 02:44:08;;;;;;;10.73;3.90;;;13.20;99.90;;;;;;4990092;28;20223;-70
2021/12/31 02:46:34;;;;;;;4.60;3.40;;;13.30;99.90;;;;;;4991645;28;20736;-72
2021/12/31 02:49:01;;;;;;;5.67;3.10;;;13.50;99.90;;;;;;4986365;28;20594;-71
2021/12/31 02:51:28;;;;;;;5.33;3.13;;;13.30;99.90;;;;;;4990335;28;20212;-73
2021/12/31 02:53:56;;;;;;;6.00;2.90;;;13.20;99.90;;;;;;4991595;28;20227;-72
2021/12/31 02:56:23;;;;;;;5.93;2.60;;;13.10;99.90;;;;;;4989330;28;20198;-74
2021/12/31 02:58:51;;;;;;;3.77;2.47;;;13.20;99.90;;;;;;4982632;28;20562;-69
2021/12/31 03:01:18;;;;;;;4.00;3.10;;;13.10;99.90;;;;;;4984112;28;20224;-73
2021/12/31 03:03:47;;;;;;;5.50;2.90;;;13.10;99.90;;;;;;4989199;28;20213;-72
2021/12/31 03:06:16;;;;;;;3.50;2.60;;;13.00;99.90;;;;;;4986730;28;20203;-72
2021/12/31 03:08:50;;;;;;;4.40;2.60;;;13.00;99.90;;;;;;4987827;28;20209;-71
2021/12/31 03:11:19;;;;;;;11.27;2.60;;;13.00;99.90;;;;;;4991569;28;20199;-71
2021/12/31 03:13:57;;;;;;;3.57;2.40;;;13.00;99.90;;;;;;4984551;28;21906;-71
2021/12/31 03:16:24;;;;;;;6.23;2.60;;;13.00;99.90;;;;;;4984130;28;20616;-71
2021/12/31 03:18:51;;;;;;;2.80;2.07;;;13.10;99.90;;;;;;4986055;28;20259;-72
2021/12/31 03:21:22;;;;;;;5.43;2.67;;;13.20;99.90;;;;;;4989200;28;20228;-73
2021/12/31 03:23:52;;;;;;;3.63;2.50;;;13.20;99.90;;;;;;4990558;28;20700;-72
2021/12/31 03:26:20;;;;;;;5.23;2.73;;;13.40;99.90;;;;;;4988294;28;20205;-70
2021/12/31 03:28:47;;;;;;;5.20;2.30;;;13.40;99.90;;;;;;4984853;28;20205;-70
2021/12/31 03:31:14;;;;;;;3.47;2.33;;;13.30;99.90;;;;;;4988998;28;20288;-82
2021/12/31 03:33:41;;;;;;;5.60;2.67;;;13.20;99.90;;;;;;5003284;28;20219;-70
2021/12/31 03:36:08;;;;;;;6.20;2.50;;;13.10;99.90;;;;;;4989633;28;20200;-70
2021/12/31 03:38:34;;;;;;;3.73;2.50;;;13.00;99.90;;;;;;4989213;28;20201;-72
2021/12/31 03:41:01;;;;;;;4.30;2.47;;;12.90;99.90;;;;;;4990746;28;20213;-71
2021/12/31 03:43:28;;;;;;;4.83;2.67;;;12.90;99.90;;;;;;4986851;28;20197;-73
2021/12/31 03:45:54;;;;;;;5.43;2.80;;;12.80;99.90;;;;;;4984106;28;20197;-72
2021/12/31 03:48:22;;;;;;;4.90;2.77;;;12.80;99.90;;;;;;4988588;28;20200;-71
2021/12/31 03:50:49;;;;;;;4.67;2.77;;;12.80;99.90;;;;;;4989516;28;20196;-74
2021/12/31 03:53:16;;;;;;;5.43;2.20;;;12.80;99.90;;;;;;4989178;28;20196;-72
2021/12/31 03:55:43;;;;;;;3.37;2.27;;;12.70;99.90;;;;;;4989671;28;20221;-74
2021/12/31 03:58:10;;;;;;;4.70;2.63;;;12.60;99.90;;;;;;4985912;28;20201;-72
2021/12/31 04:00:37;;;;;;;6.40;2.40;;;12.60;99.90;;;;;;4987124;28;20201;-73
2021/12/31 04:03:11;;;;;;;4.13;2.10;;;12.50;99.90;;;;;;4984343;28;20192;-74
2021/12/31 04:05:42;;;;;;;3.17;2.20;;;12.50;99.90;;;;;;4988138;28;20212;-72
2021/12/31 04:08:10;;;;;;;3.87;2.40;;;12.30;99.90;;;;;;4985670;28;20197;-72
2021/12/31 04:10:37;;;;;;;5.03;2.70;;;12.40;99.90;;;;;;4982478;28;20656;-72
2021/12/31 04:13:04;;;;;;;4.10;2.27;;;12.50;99.90;;;;;;4988404;28;20610;-74
2021/12/31 04:15:31;;;;;;;4.93;2.70;;;12.40;99.90;;;;;;4986657;28;20235;-75
2021/12/31 04:17:57;;;;;;;5.87;3.10;;;12.40;99.90;;;;;;4982276;28;20216;-74
2021/12/31 04:20:48;;;;;;;4.93;2.70;;;12.40;99.90;;;;;;4987078;28;20220;-74
2021/12/31 04:23:31;;;;;;;6.70;2.67;;;12.40;99.90;;;;;;4985961;28;20197;-80
2021/12/31 04:25:59;;;;;;;6.63;2.93;;;12.30;99.90;;;;;;4988475;28;20208;-77
2021/12/31 04:28:27;;;;;;;6.03;3.60;;;12.20;99.90;;;;;;4980335;28;20207;-80
2021/12/31 04:30:55;;;;;;;5.70;3.37;;;12.30;99.90;;;;;;4979086;28;20205;-79
2021/12/31 04:33:22;;;;;;;5.90;3.20;;;12.40;99.90;;;;;;4989198;28;20207;-76
2021/12/31 04:35:48;;;;;;;5.23;2.97;;;12.20;99.90;;;;;;4988904;28;20250;-78
2021/12/31 04:38:15;;;;;;;7.47;3.83;;;12.20;99.90;;;;;;4988198;28;20208;-77
2021/12/31 04:40:42;;;;;;;6.63;3.97;;;12.30;99.90;;;;;;4980823;28;20203;-80
2021/12/31 04:43:08;;;;;;;6.50;3.60;;;12.20;99.90;;;;;;4988556;28;20200;-80
2021/12/31 04:45:35;;;;;;;8.13;3.40;;;12.20;99.90;;;;;;4982469;28;20217;-77
2021/12/31 04:48:03;;;;;;;6.33;4.00;;;12.00;99.90;;;;;;4987467;28;20235;-79
2021/12/31 04:50:30;;;;;;;9.87;3.60;;;12.20;99.90;;;;;;4982748;28;20267;-80
2021/12/31 04:52:57;;;;;;;5.60;3.17;;;12.20;99.90;;;;;;4985954;28;20206;-77
2021/12/31 04:55:24;;;;;;;6.70;3.50;;;12.00;99.90;;;;;;4987829;28;20280;-80
2021/12/31 04:57:51;;;;;;;5.13;3.23;;;11.90;99.90;;;;;;4988912;28;21436;-78
2021/12/31 05:00:17;;;;;;;5.13;3.40;;;12.10;99.90;;;;;;4983685;28;20200;-73
2021/12/31 05:02:44;;;;;;;8.30;3.50;;;12.10;99.90;;;;;;4983599;28;20230;-77
2021/12/31 05:05:11;;;;;;;6.13;3.20;;;12.00;99.90;;;;;;4985955;28;20247;-79
2021/12/31 05:07:38;;;;;;;5.60;3.53;;;11.90;99.90;;;;;;4988260;28;20715;-79
2021/12/31 05:10:06;;;;;;;7.73;3.60;;;11.90;99.90;;;;;;4987652;28;20202;-77
2021/12/31 05:12:35;;;;;;;8.53;2.90;;;12.10;99.90;;;;;;4981564;28;20201;-76
2021/12/31 05:15:02;;;;;;;9.20;3.23;;;12.10;99.90;;;;;;4987394;28;20598;-72
2021/12/31 05:17:29;;;;;;;5.20;2.70;;;12.20;99.90;;;;;;4988776;28;20276;-73
2021/12/31 05:19:56;;;;;;;5.73;3.00;;;12.00;99.90;;;;;;4985044;28;20598;-79
2021/12/31 05:22:22;;;;;;;5.93;2.97;;;11.80;99.90;;;;;;4987269;28;20223;-79
2021/12/31 05:24:49;;;;;;;8.07;3.10;;;11.80;99.90;;;;;;4981236;28;20214;-81
2021/12/31 05:27:16;;;;;;;9.67;3.40;;;11.80;99.90;;;;;;4985087;28;20207;-79
2021/12/31 05:29:42;;;;;;;6.17;2.93;;;11.90;99.90;;;;;;4983569;28;20250;-80
2021/12/31 05:32:09;;;;;;;6.77;3.03;;;11.90;99.90;;;;;;4984246;28;20264;-76
2021/12/31 05:34:36;;;;;;;4.30;2.70;;;11.80;99.90;;;;;;4987058;28;20228;-78
2021/12/31 05:37:02;;;;;;;5.10;2.90;;;11.70;99.90;;;;;;4984795;28;20198;-76
2021/12/31 05:39:29;;;;;;;5.27;2.83;;;11.70;99.90;;;;;;4985227;28;20261;-76
2021/12/31 05:41:56;;;;;;;7.20;3.47;;;11.60;99.90;;;;;;4983066;28;20220;-80
2021/12/31 05:44:22;;;;;;;4.60;2.40;;;11.60;99.90;;;;;;4991515;28;20703;-78
2021/12/31 05:46:52;;;;;;;5.80;3.03;;;11.60;99.90;;;;;;4987479;28;20209;-75
2021/12/31 05:49:24;;;;;;;5.20;2.83;;;11.50;99.90;;;;;;4984694;28;20240;-78
2021/12/31 05:51:51;;;;;;;5.53;3.37;;;11.50;99.90;;;;;;4985537;28;20201;-76
2021/12/31 05:54:18;;;;;;;6.27;3.37;;;11.40;99.90;;;;;;4991315;28;20236;-78
2021/12/31 05:56:44;;;;;;;4.40;3.07;;;11.30;99.90;;;;;;4991712;28;20211;-79
2021/12/31 05:59:11;;;;;;;5.63;2.60;;;11.10;99.90;;;;;;4981403;28;20199;-77
2021/12/31 06:01:38;;;;;;;6.27;2.70;;;11.00;99.90;;;;;;4987035;28;20224;-79
2021/12/31 06:04:05;;;;;;;4.33;2.50;;;10.80;99.90;;;;;;4988990;28;20220;-78
2021/12/31 06:06:32;;;;;;;6.00;3.00;;;10.80;99.90;;;;;;4989909;28;20246;-78
2021/12/31 06:08:58;;;;;;;7.77;3.17;;;10.60;99.90;;;;;;4985841;28;20197;-80
2021/12/31 06:11:25;;;;;;;6.20;3.23;;;10.50;99.90;;;;;;4991824;28;20222;-76
2021/12/31 06:14:01;;;;;;;5.87;3.20;;;10.50;99.90;;;;;;4989749;28;20220;-72
2021/12/31 06:16:33;;;;;;;6.93;3.30;;;10.30;99.90;;;;;;4992076;28;20199;-71
2021/12/31 06:19:03;;;;;;;5.93;3.17;;;10.20;99.90;;;;;;4989211;28;20207;-69
2021/12/31 06:21:32;;;;;;;7.97;3.00;;;10.20;99.90;;;;;;4982591;28;20229;-70
2021/12/31 06:23:59;;;;;;;7.17;3.30;;;10.10;99.90;;;;;;4991177;28;20220;-72
2021/12/31 06:26:28;;;;;;;7.17;3.17;;;10.10;99.90;;;;;;4988207;28;20287;-70
2021/12/31 06:28:55;;;;;;;5.50;3.53;;;10.00;99.90;;;;;;4988799;28;20200;-71
2021/12/31 06:31:23;;;;;;;5.47;3.37;;;10.00;99.90;;;;;;4991570;28;20683;-72
2021/12/31 06:33:49;;;;;;;5.07;3.33;;;10.00;99.90;;;;;;4989721;28;20732;-70
2021/12/31 06:36:17;;;;;;;4.10;3.00;;;9.90;99.90;;;;;;4989905;28;20607;-71
2021/12/31 06:38:44;;;;;;;5.90;3.10;;;9.90;99.90;;;;;;4993029;28;20233;-70
2021/12/31 06:41:10;;;;;;;7.37;3.97;;;9.90;99.90;;;;;;4992807;28;20202;-69
2021/12/31 06:43:37;;;;;;;5.87;3.30;;;9.80;99.90;;;;;;4990378;28;20208;-70
2021/12/31 06:46:04;;;;;;;6.03;2.93;;;9.80;99.90;;;;;;4987804;28;20213;-70
2021/12/31 06:48:31;;;;;;;8.23;3.33;;;9.80;99.90;;;;;;4991668;28;20198;-71
2021/12/31 06:50:57;;;;;;;5.97;3.00;;;9.70;99.90;;;;;;4989948;28;20799;-70
2021/12/31 06:53:24;;;;;;;6.10;3.27;;;9.70;99.90;;;;;;4985479;28;20202;-72
2021/12/31 06:55:50;;;;;;;6.30;3.30;;;9.60;99.90;;;;;;4992240;28;20715;-69
2021/12/31 06:58:17;;;;;;;5.97;3.03;;;9.60;99.90;;;;;;4991770;28;20249;-72
2021/12/31 07:00:44;;;;;;;5.80;2.80;;;9.50;99.90;;;;;;4991764;28;20628;-69
2021/12/31 07:03:13;;;;;;;7.17;3.20;;;9.40;99.90;;;;;;4991354;28;20218;-68
2021/12/31 07:05:43;;;;;;;6.47;3.60;;;9.40;99.90;;;;;;4989168;28;20617;-70
2021/12/31 07:08:10;;;;;;;5.23;2.90;;;9.40;99.90;;;;;;4983116;28;20193;-69
2021/12/31 07:10:37;;;;;;;7.00;3.80;;;9.30;99.90;;;;;;4988795;28;20698;-69
2021/12/31 07:13:10;;;;;;;12.73;5.00;;;9.50;99.90;;;;;;4985584;28;20197;-69
2021/12/31 07:15:39;;;;;;;9.40;4.37;;;9.70;99.90;;;;;;4986632;28;20261;-70
2021/12/31 07:18:06;;;;;;;7.93;4.27;;;9.80;99.90;;;;;;4979877;28;20288;-69
2021/12/31 07:20:36;;;;;;;7.73;4.10;;;9.70;99.90;;;;;;4991242;28;20259;-69
2021/12/31 07:23:06;;;;;;;11.60;4.07;;;9.60;99.90;;;;;;4987273;28;20224;-69
2021/12/31 07:25:34;;;;;;;10.20;4.60;;;9.40;99.90;;;;;;4990474;28;20224;-69
2021/12/31 07:28:01;;;;;;;7.17;4.53;;;9.30;99.90;;;;;;4991399;28;20201;-69
2021/12/31 07:30:28;;;;;;;8.30;4.50;;;9.10;99.90;;;;;;4984773;28;20193;-70
2021/12/31 07:32:55;;;;;;;10.27;4.67;;;9.10;99.90;;;;;;4990377;28;20220;-69
2021/12/31 07:35:23;;;;;;;10.60;4.57;;;9.20;99.90;;;;;;4984170;28;20271;-70
2021/12/31 07:37:55;;;;;;;9.57;4.33;;;9.40;99.90;;;;;;4991598;28;20195;-71
2021/12/31 07:40:37;;;;;;;14.60;4.77;;;9.30;99.90;;;;;;4990718;28;20251;-71
2021/12/31 07:43:08;;;;;;;11.33;5.20;;;9.20;99.90;;;;;;4990203;28;20362;-69
2021/12/31 07:45:35;;;;;;;7.87;4.67;;;9.30;99.90;;;;;;4985814;28;20267;-70
2021/12/31 07:48:03;;;;;;;9.87;5.23;;;9.30;99.90;;;;;;4989129;28;20247;-69
2021/12/31 07:50:30;;;;;;;10.37;6.73;;;9.30;99.90;;;;;;4989497;28;20197;-71
2021/12/31 07:52:57;;;;;;;13.37;5.83;;;9.40;99.90;;;;;;4987266;28;20198;-71
2021/12/31 07:55:25;;;;;;;11.67;5.10;;;9.40;99.90;;;;;;4987502;28;20221;-70
2021/12/31 07:57:51;;;;;;;9.33;4.97;;;9.50;99.90;;;;;;4991179;28;20198;-70
2021/12/31 08:00:18;;;;;;;8.70;4.70;;;9.40;99.90;;;;;;4988247;28;20735;-71
2021/12/31 08:02:44;;;;;;;12.10;5.23;;;9.30;99.90;;;;;;4985204;28;20229;-70
2021/12/31 08:05:12;;;;;;;9.30;5.97;;;9.40;99.90;;;;;;4987914;28;20241;-70
2021/12/31 08:07:38;;;;;;;10.70;5.70;;;9.60;99.90;;;;;;4989702;28;20195;-70
2021/12/31 08:10:06;;;;;;;11.03;5.20;;;9.70;99.90;;;;;;4989263;28;20192;-69
2021/12/31 08:12:52;;;;;;;9.40;5.40;;;9.60;99.90;;;;;;4986139;28;20704;-71
2021/12/31 08:15:19;;;;;;;8.93;5.50;;;9.50;99.90;;;;;;4991951;28;20226;-69
2021/12/31 08:17:46;;;;;;;15.10;6.13;;;9.50;99.90;;;;;;4988012;28;21062;-70
2021/12/31 08:20:12;;;;;;;11.00;5.33;;;9.40;99.90;;;;;;4979303;28;20202;-69
2021/12/31 08:22:39;;;;;;;10.67;5.37;;;9.30;99.90;;;;;;4985416;28;20214;-72
2021/12/31 08:25:06;;;;;;;10.27;5.40;;;9.30;99.90;;;;;;4980514;28;20223;-71
2021/12/31 08:27:38;;;;;;;11.07;5.43;;;9.30;99.90;;;;;;4990872;28;20206;-69
2021/12/31 08:30:07;;;;;;;8.07;5.37;;;9.30;99.90;;;;;;4989672;28;20235;-69
2021/12/31 08:32:35;;;;;;;9.20;5.23;;;9.40;99.90;;;;;;4988703;28;20195;-70
2021/12/31 08:35:03;;;;;;;9.80;5.97;;;9.40;99.90;;;;;;4983367;28;20725;-70
2021/12/31 08:37:30;;;;;;;8.17;5.50;;;9.40;99.90;;;;;;4987180;28;20676;-70
2021/12/31 08:39:57;;;;;;;11.63;5.10;;;9.70;99.90;;;;;;4981735;28;20205;-70
2021/12/31 08:42:25;;;;;;;11.87;6.00;;;9.60;99.90;;;;;;4987947;28;20235;-71
2021/12/31 08:44:52;;;;;;;16.50;6.37;;;9.60;99.90;;;;;;4985609;28;20226;-69
2021/12/31 08:47:21;;;;;;;11.30;5.63;;;9.60;99.90;;;;;;4976516;28;20291;-70
2021/12/31 08:49:48;;;;;;;14.30;6.10;;;9.70;99.90;;;;;;4983045;28;20623;-69
2021/12/31 08:52:15;;;;;;;13.80;5.87;;;9.80;99.90;;;;;;4986275;28;20200;-71
2021/12/31 08:54:42;;;;;;;10.67;5.67;;;9.90;99.90;;;;;;4986477;28;20989;-71
2021/12/31 08:57:08;;;;;;;10.03;5.67;;;10.00;99.90;;;;;;4982351;28;20211;-70
2021/12/31 08:59:35;;;;;;;10.53;5.57;;;10.00;99.90;;;;;;4982468;28;20232;-68
2021/12/31 09:02:02;;;;;;;13.83;5.17;;;10.00;99.90;;;;;;4981128;28;20210;-67
2021/12/31 09:04:28;;;;;;;13.27;5.50;;;10.20;99.90;;;;;;4986393;28;20211;-70
2021/12/31 09:06:55;;;;;;;9.27;4.83;;;10.40;99.90;;;;;;4983848;28;20200;-71
2021/12/31 09:09:22;;;;;;;13.43;5.33;;;10.50;99.90;;;;;;4976271;28;20637;-75
2021/12/31 09:11:49;;;;;;;10.53;4.47;;;10.60;99.90;;;;;;4986752;28;20196;-69
2021/12/31 09:14:16;;;;;;;8.30;4.80;;;10.60;99.90;;;;;;4984821;28;20224;-69
2021/12/31 09:16:46;;;;;;;9.97;4.77;;;10.60;99.90;;;;;;4980586;28;20199;-73
2021/12/31 09:19:14;;;;;;;14.47;5.53;;;10.60;99.90;;;;;;4986335;28;20195;-73
2021/12/31 09:21:40;;;;;;;10.67;5.07;;;10.80;99.90;;;;;;4978608;28;20216;-74
2021/12/31 09:24:07;;;;;;;12.03;5.17;;;10.90;99.90;;;;;;4987940;28;20228;-74
2021/12/31 09:26:34;;;;;;;12.27;5.13;;;11.10;99.90;;;;;;4983195;28;20216;-72
2021/12/31 09:29:01;;;;;;;10.83;5.47;;;11.20;99.90;;;;;;4979596;28;20198;-75
2021/12/31 09:31:28;;;;;;;15.43;5.67;;;11.20;99.90;;;;;;4985442;28;20205;-72
2021/12/31 09:33:54;;;;;;;8.97;4.93;;;11.40;99.90;;;;;;4978004;28;20307;-71
2021/12/31 09:36:21;;;;;;;10.43;5.03;;;11.40;99.90;;;;;;4987618;28;20563;-72
2021/12/31 09:38:48;;;;;;;15.07;5.20;;;11.60;99.90;;;;;;4990694;28;20227;-74
2021/12/31 09:41:14;;;;;;;8.53;4.87;;;11.60;99.90;;;;;;4977534;28;20198;-74
2021/12/31 09:43:48;;;;;;;11.87;4.73;;;11.80;99.90;;;;;;4980711;28;20229;-76
2021/12/31 09:46:15;;;;;;;9.83;4.50;;;11.80;99.90;;;;;;4977192;28;20204;-75
2021/12/31 09:48:42;;;;;;;10.53;4.37;;;11.80;99.90;;;;;;4984185;28;20307;-77
2021/12/31 09:51:09;;;;;;;8.77;4.53;;;11.90;99.90;;;;;;4988463;28;20244;-80
2021/12/31 09:53:36;;;;;;;7.90;4.13;;;12.00;99.90;;;;;;4987401;28;20658;-79
2021/12/31 09:56:02;;;;;;;9.80;4.27;;;12.10;99.90;;;;;;4985755;28;20210;-79
2021/12/31 09:58:29;;;;;;;5.63;3.93;;;12.20;99.90;;;;;;4975774;28;20202;-79
2021/12/31 10:01:00;;;;;;;8.63;4.23;;;12.00;99.90;;;;;;4982157;28;20611;-76
2021/12/31 10:03:32;;;;;;;7.53;4.37;;;11.90;99.90;;;;;;4978764;28;20516;-78
2021/12/31 10:06:14;;;;;;;6.80;4.20;;;11.80;99.90;;;;;;4986787;28;20635;-77
2021/12/31 10:08:46;;;;;;;7.80;4.17;;;11.90;99.90;;;;;;4984316;28;20569;-78
2021/12/31 10:11:18;;;;;;;5.97;3.53;;;12.00;99.90;;;;;;4987922;28;20197;-76
2021/12/31 10:13:55;;;;;;;7.07;3.93;;;12.10;99.90;;;;;;4987133;28;20581;-77
2021/12/31 10:16:24;;;;;;;8.80;4.10;;;12.20;99.90;;;;;;4984402;28;20213;-76
2021/12/31 10:19:10;;;;;;;7.63;4.20;;;12.40;99.90;;;;;;4986533;28;20597;-72
2021/12/31 10:21:49;;;;;;;8.80;3.33;;;12.60;99.90;;;;;;4980947;28;20227;-75
2021/12/31 10:24:32;;;;;;;7.67;3.73;;;12.80;99.90;;;;;;4978536;28;20295;-80
2021/12/31 10:27:13;;;;;;;6.63;3.90;;;12.90;99.90;;;;;;4991464;28;20207;-80
2021/12/31 10:30:02;;;;;;;7.10;3.50;;;12.80;99.90;;;;;;4993373;28;20191;-75
2021/12/31 10:32:31;;;;;;;5.13;3.20;;;12.90;99.90;;;;;;4985345;28;20202;-73
2021/12/31 10:35:20;;;;;;;5.73;3.10;;;13.10;99.90;;;;;;4992644;28;20224;-74
2021/12/31 10:37:56;;;;;;;7.53;3.30;;;13.20;99.90;;;;;;4986854;28;20224;-74
2021/12/31 10:40:30;;;;;;;6.43;3.23;;;13.40;99.90;;;;;;4985670;28;20196;-71
2021/12/31 10:43:29;;;;;;;5.67;3.27;;;13.30;99.90;;;;;;4982753;28;20260;-72
2021/12/31 10:46:03;;;;;;;6.33;3.10;;;13.40;99.90;;;;;;4988253;28;20254;-73
2021/12/31 10:48:44;;;;;;;5.67;3.47;;;13.60;99.90;;;;;;4990252;28;20194;-73
2021/12/31 10:51:14;;;;;;;6.37;3.30;;;13.60;99.90;;;;;;4988966;28;20197;-76
2021/12/31 10:53:49;;;;;;;6.80;3.47;;;13.70;99.90;;;;;;4988643;28;20203;-73
2021/12/31 10:56:16;;;;;;;7.20;3.43;;;13.80;99.90;;;;;;4989177;28;20196;-74
2021/12/31 10:58:55;;;;;;;7.67;3.53;;;14.00;99.90;;;;;;4987389;28;20212;-71
2021/12/31 11:01:22;;;;;;;5.87;3.07;;;14.00;99.90;;;;;;4990695;28;20267;-75
2021/12/31 11:03:50;;;;;;;5.67;3.30;;;14.10;99.90;;;;;;4997826;28;20224;-68
2021/12/31 11:06:23;;;;;;;7.37;3.30;;;14.20;99.90;;;;;;4985352;28;20682;-73
2021/12/31 11:08:51;;;;;;;6.07;3.10;;;14.30;99.90;;;;;;4975440;28;20244;-70
2021/12/31 11:11:24;;;;;;;8.77;3.27;;;14.30;99.90;;;;;;4989151;28;20204;-74
2021/12/31 11:13:51;;;;;;;6.13;3.70;;;14.50;99.90;;;;;;4986477;28;20228;-75
2021/12/31 11:16:18;;;;;;;6.93;3.33;;;14.60;99.90;;;;;;4988509;28;20319;-73
2021/12/31 11:18:45;;;;;;;5.97;3.37;;;14.50;99.90;;;;;;4990195;28;20197;-69
2021/12/31 11:21:13;;;;;;;6.27;3.23;;;14.60;99.90;;;;;;4987456;28;20201;-69
2021/12/31 11:23:43;;;;;;;5.23;3.10;;;14.60;99.90;;;;;;4989776;28;20212;-72
2021/12/31 11:26:13;;;;;;;6.20;2.97;;;14.50;99.90;;;;;;4981382;28;20193;-74
2021/12/31 11:28:43;;;;;;;5.23;2.97;;;14.40;99.90;;;;;;4982911;28;20244;-75
2021/12/31 11:31:19;;;;;;;4.60;3.30;;;14.40;99.90;;;;;;4989901;28;20197;-71
2021/12/31 11:34:10;;;;;;;6.40;2.93;;;14.30;99.90;;;;;;4978723;28;20320;-71
2021/12/31 11:36:37;;;;;;;4.70;3.13;;;14.30;99.90;;;;;;4969190;28;20669;-72
2021/12/31 11:39:32;;;;;;;5.43;3.00;;;14.40;99.90;;;;;;4984308;28;20201;-73
2021/12/31 11:42:05;;;;;;;4.60;3.17;;;14.30;99.90;;;;;;4980725;28;20196;-70
2021/12/31 11:44:33;;;;;;;4.27;3.00;;;14.30;99.90;;;;;;4992876;28;20700;-71
2021/12/31 11:47:17;;;;;;;8.43;3.40;;;14.30;99.90;;;;;;4982352;28;20483;-70
2021/12/31 11:49:46;;;;;;;5.23;3.50;;;14.50;99.90;;;;;;4984095;28;20204;-71
2021/12/31 11:52:20;;;;;;;5.10;3.37;;;14.50;99.90;;;;;;4990106;28;20199;-70
2021/12/31 11:55:07;;;;;;;4.87;3.00;;;14.60;99.90;;;;;;4986569;28;20223;-70
2021/12/31 11:57:34;;;;;;;6.00;3.13;;;14.60;99.90;;;;;;4986078;28;20201;-70
2021/12/31 12:00:00;;;;;;;5.13;3.13;;;14.50;99.90;;;;;;4983566;28;20290;-70
2021/12/31 12:02:40;;;;;;;5.43;3.70;;;14.50;99.90;;;;;;4976238;28;20202;-70
2021/12/31 12:05:12;;;;;;;5.40;3.43;;;14.50;99.90;;;;;;4980459;28;20252;-71
2021/12/31 12:07:46;;;;;;;5.80;3.00;;;14.60;99.90;;;;;;4988785;28;20197;-72
2021/12/31 12:10:17;;;;;;;4.47;3.00;;;14.70;99.90;;;;;;4981695;28;20228;-68
2021/12/31 12:12:49;;;;;;;5.87;3.37;;;14.60;99.90;;;;;;4984429;28;20205;-73
2021/12/31 12:15:19;;;;;;;4.93;2.97;;;14.50;99.90;;;;;;4995808;28;20739;-73
2021/12/31 12:17:46;;;;;;;7.07;3.13;;;14.40;99.90;;;;;;4987992;28;20583;-71
2021/12/31 12:20:18;;;;;;;6.17;3.70;;;14.30;99.90;;;;;;4983374;28;20244;-73
2021/12/31 12:22:52;;;;;;;5.97;3.67;;;14.30;99.90;;;;;;4986109;28;20271;-72
2021/12/31 12:25:24;;;;;;;7.70;3.70;;;14.10;99.90;;;;;;4980099;28;20232;-72
2021/12/31 12:28:01;;;;;;;7.07;3.93;;;14.00;99.90;;;;;;4988634;28;20201;-72
2021/12/31 12:30:29;;;;;;;6.30;4.00;;;14.10;99.90;;;;;;4985438;28;20588;-74
2021/12/31 12:33:08;;;;;;;7.83;4.17;;;14.10;99.90;;;;;;4986453;28;20240;-73
2021/12/31 12:35:40;;;;;;;6.40;3.53;;;14.20;99.90;;;;;;4988260;28;20277;-72
2021/12/31 12:38:12;;;;;;;5.63;3.27;;;14.40;99.90;;;;;;4984746;28;20197;-74
2021/12/31 12:40:47;;;;;;;5.37;3.17;;;14.50;99.90;;;;;;4989693;28;20289;-71
2021/12/31 12:43:24;;;;;;;5.10;3.10;;;14.60;99.90;;;;;;4990485;28;20220;-73
2021/12/31 12:45:52;;;;;;;4.80;2.90;;;14.60;99.90;;;;;;4990515;28;20215;-72
2021/12/31 12:48:36;;;;;;;6.57;3.40;;;14.50;99.90;;;;;;4990117;28;20209;-72
2021/12/31 12:51:11;;;;;;;9.27;3.20;;;14.50;99.90;;;;;;4987553;28;20196;-71
2021/12/31 12:53:49;;;;;;;5.90;3.37;;;14.50;99.90;;;;;;4989261;28;20298;-73
2021/12/31 12:56:17;;;;;;;4.97;3.23;;;14.50;99.90;;;;;;4990795;28;20246;-72
2021/12/31 12:58:50;;;;;;;4.27;3.00;;;14.50;99.90;;;;;;4987702;28;20197;-72
2021/12/31 13:01:18;;;;;;;4.60;3.20;;;14.50;99.90;;;;;;4982989;28;20692;-73